sensor_id;sensor_type;location;lat;lon;timestamp;temperature;humidity
25716;DHT22;13573;50.936;4.328;2023-04-09T00:00:39;8.80;99.90
25716;DHT22;13573;50.936;4.328;2023-04-09T00:05:36;8.60;99.90
25716;DHT22;13573;50.936;4.328;2023-04-09T00:12:55;8.60;99.90
25716;DHT22;13573;50.936;4.328;2023-04-09T00:15:22;8.10;99.90
25716;DHT22;13573;50.936;4.328;2023-04-09T00:17:48;8.20;99.90
25716;DHT22;13573;50.936;4.328;2023-04-09T00:20:15;9.10;99.90
25716;DHT22;13573;50.936;4.328;2023-04-09T00:27:35;8.30;99.90
25716;DHT22;13573;50.936;4.328;2023-04-09T00:30:02;8.30;99.90
25716;DHT22;13573;50.936;4.328;2023-04-09T00:32:28;8.40;99.90
25716;DHT22;13573;50.936;4.328;2023-04-09T00:34:55;8.00;99.90
25716;DHT22;13573;50.936;4.328;2023-04-09T00:42:15;8.20;99.90
25716;DHT22;13573;50.936;4.328;2023-04-09T00:47:09;8.10;99.90
25716;DHT22;13573;50.936;4.328;2023-04-09T00:49:36;7.70;99.90
25716;DHT22;13573;50.936;4.328;2023-04-09T00:52:03;7.60;99.90
25716;DHT22;13573;50.936;4.328;2023-04-09T01:01:51;7.80;99.90
25716;DHT22;13573;50.936;4.328;2023-04-09T01:09:32;8.00;99.90
25716;DHT22;13573;50.936;4.328;2023-04-09T01:14:46;8.00;99.90
25716;DHT22;13573;50.936;4.328;2023-04-09T01:19:52;8.40;99.90
25716;DHT22;13573;50.936;4.328;2023-04-09T01:22:56;7.80;99.90
25716;DHT22;13573;50.936;4.328;2023-04-09T01:28:17;7.70;99.90
25716;DHT22;13573;50.936;4.328;2023-04-09T01:30:47;7.50;99.90
25716;DHT22;13573;50.936;4.328;2023-04-09T01:35:44;7.80;99.90
25716;DHT22;13573;50.936;4.328;2023-04-09T01:38:13;7.60;99.90
25716;DHT22;13573;50.936;4.328;2023-04-09T01:40:41;7.40;99.90
25716;DHT22;13573;50.936;4.328;2023-04-09T01:43:08;7.30;99.90
25716;DHT22;13573;50.936;4.328;2023-04-09T01:45:36;7.40;99.90
25716;DHT22;13573;50.936;4.328;2023-04-09T02:00:19;8.20;99.90
25716;DHT22;13573;50.936;4.328;2023-04-09T02:05:19;7.60;99.90
25716;DHT22;13573;50.936;4.328;2023-04-09T02:07:51;7.60;99.90
25716;DHT22;13573;50.936;4.328;2023-04-09T02:10:19;7.40;99.90
25716;DHT22;13573;50.936;4.328;2023-04-09T02:15:18;6.30;99.90
25716;DHT22;13573;50.936;4.328;2023-04-09T02:17:45;7.30;99.90
25716;DHT22;13573;50.936;4.328;2023-04-09T02:20:17;7.10;99.90
25716;DHT22;13573;50.936;4.328;2023-04-09T02:22:45;6.90;99.90
25716;DHT22;13573;50.936;4.328;2023-04-09T02:39:53;6.40;99.90
25716;DHT22;13573;50.936;4.328;2023-04-09T02:42:19;6.60;99.90
25716;DHT22;13573;50.936;4.328;2023-04-09T02:44:46;6.60;99.90
25716;DHT22;13573;50.936;4.328;2023-04-09T02:49:40;6.80;99.90
25716;DHT22;13573;50.936;4.328;2023-04-09T02:52:08;6.90;99.90
25716;DHT22;13573;50.936;4.328;2023-04-09T02:54:36;6.90;99.90
25716;DHT22;13573;50.936;4.328;2023-04-09T02:57:02;7.00;99.90
25716;DHT22;13573;50.936;4.328;2023-04-09T03:06:51;7.00;99.90
25716;DHT22;13573;50.936;4.328;2023-04-09T03:14:11;7.20;99.90
25716;DHT22;13573;50.936;4.328;2023-04-09T03:19:04;6.90;99.90
25716;DHT22;13573;50.936;4.328;2023-04-09T03:21:31;7.00;99.90
25716;DHT22;13573;50.936;4.328;2023-04-09T03:23:58;6.70;99.90
25716;DHT22;13573;50.936;4.328;2023-04-09T03:26:24;7.20;99.90
25716;DHT22;13573;50.936;4.328;2023-04-09T03:28:51;7.30;99.90
25716;DHT22;13573;50.936;4.328;2023-04-09T03:31:17;7.00;99.90
25716;DHT22;13573;50.936;4.328;2023-04-09T03:33:44;5.50;99.90
25716;DHT22;13573;50.936;4.328;2023-04-09T03:36:11;7.10;99.90
25716;DHT22;13573;50.936;4.328;2023-04-09T03:38:37;7.10;99.90
25716;DHT22;13573;50.936;4.328;2023-04-09T03:41:04;6.90;99.90
25716;DHT22;13573;50.936;4.328;2023-04-09T03:45:58;7.20;99.90
25716;DHT22;13573;50.936;4.328;2023-04-09T03:48:25;5.70;99.90
25716;DHT22;13573;50.936;4.328;2023-04-09T03:50:51;7.40;99.90
25716;DHT22;13573;50.936;4.328;2023-04-09T04:00:39;6.80;99.90
25716;DHT22;13573;50.936;4.328;2023-04-09T04:07:59;6.50;99.90
25716;DHT22;13573;50.936;4.328;2023-04-09T04:10:25;6.60;99.90
25716;DHT22;13573;50.936;4.328;2023-04-09T04:17:45;6.50;99.90
25716;DHT22;13573;50.936;4.328;2023-04-09T04:20:12;6.70;99.90
25716;DHT22;13573;50.936;4.328;2023-04-09T04:22:39;6.60;99.90
25716;DHT22;13573;50.936;4.328;2023-04-09T04:25:06;6.70;99.90
25716;DHT22;13573;50.936;4.328;2023-04-09T04:27:32;7.80;99.90
25716;DHT22;13573;50.936;4.328;2023-04-09T04:34:53;6.90;99.90
25716;DHT22;13573;50.936;4.328;2023-04-09T04:39:47;6.60;99.90
25716;DHT22;13573;50.936;4.328;2023-04-09T04:52:01;6.10;99.90
25716;DHT22;13573;50.936;4.328;2023-04-09T04:54:28;6.50;99.90
25716;DHT22;13573;50.936;4.328;2023-04-09T04:56:55;7.80;99.90
25716;DHT22;13573;50.936;4.328;2023-04-09T04:59:22;6.60;99.90
25716;DHT22;13573;50.936;4.328;2023-04-09T05:01:48;7.30;99.90
25716;DHT22;13573;50.936;4.328;2023-04-09T05:04:15;6.30;99.90
25716;DHT22;13573;50.936;4.328;2023-04-09T05:09:08;6.60;99.90
25716;DHT22;13573;50.936;4.328;2023-04-09T05:11:35;6.20;99.90
25716;DHT22;13573;50.936;4.328;2023-04-09T05:14:01;6.10;99.90
25716;DHT22;13573;50.936;4.328;2023-04-09T05:16:29;6.70;99.90
25716;DHT22;13573;50.936;4.328;2023-04-09T05:21:23;6.80;99.90
25716;DHT22;13573;50.936;4.328;2023-04-09T05:26:16;7.60;99.90
25716;DHT22;13573;50.936;4.328;2023-04-09T05:31:09;6.70;99.90
25716;DHT22;13573;50.936;4.328;2023-04-09T05:33:38;7.90;99.90
25716;DHT22;13573;50.936;4.328;2023-04-09T05:36:05;7.20;99.90
25716;DHT22;13573;50.936;4.328;2023-04-09T05:38:31;8.00;99.90
25716;DHT22;13573;50.936;4.328;2023-04-09T05:43:25;6.70;99.90
25716;DHT22;13573;50.936;4.328;2023-04-09T05:45:52;7.10;99.90
25716;DHT22;13573;50.936;4.328;2023-04-09T05:48:18;7.50;99.90
25716;DHT22;13573;50.936;4.328;2023-04-09T05:58:09;8.70;99.90
25716;DHT22;13573;50.936;4.328;2023-04-09T06:03:03;8.60;99.90
25716;DHT22;13573;50.936;4.328;2023-04-09T06:05:30;8.30;99.90
25716;DHT22;13573;50.936;4.328;2023-04-09T06:07:57;9.10;99.90
25716;DHT22;13573;50.936;4.328;2023-04-09T06:10:23;9.80;99.90
25716;DHT22;13573;50.936;4.328;2023-04-09T06:12:50;10.50;99.90
25716;DHT22;13573;50.936;4.328;2023-04-09T06:20:10;11.80;99.90
25716;DHT22;13573;50.936;4.328;2023-04-09T06:22:37;12.30;99.90
25716;DHT22;13573;50.936;4.328;2023-04-09T06:25:04;12.10;99.90
25716;DHT22;13573;50.936;4.328;2023-04-09T06:27:32;13.00;99.90
25716;DHT22;13573;50.936;4.328;2023-04-09T06:29:58;13.10;99.90
25716;DHT22;13573;50.936;4.328;2023-04-09T06:34:51;13.20;99.90
25716;DHT22;13573;50.936;4.328;2023-04-09T06:37:18;12.60;99.90
25716;DHT22;13573;50.936;4.328;2023-04-09T06:39:45;13.00;99.90
25716;DHT22;13573;50.936;4.328;2023-04-09T06:42:11;12.90;99.90
25716;DHT22;13573;50.936;4.328;2023-04-09T06:44:38;13.50;99.90
25716;DHT22;13573;50.936;4.328;2023-04-09T06:47:05;13.90;99.90
25716;DHT22;13573;50.936;4.328;2023-04-09T06:54:27;14.60;99.90
25716;DHT22;13573;50.936;4.328;2023-04-09T06:56:54;14.50;99.90
25716;DHT22;13573;50.936;4.328;2023-04-09T06:59:20;14.80;99.90
25716;DHT22;13573;50.936;4.328;2023-04-09T07:01:47;15.20;99.90
25716;DHT22;13573;50.936;4.328;2023-04-09T07:06:40;15.10;99.90
25716;DHT22;13573;50.936;4.328;2023-04-09T07:09:07;15.20;99.90
25716;DHT22;13573;50.936;4.328;2023-04-09T07:11:33;15.30;99.90
25716;DHT22;13573;50.936;4.328;2023-04-09T07:14:00;16.10;99.90
25716;DHT22;13573;50.936;4.328;2023-04-09T07:16:27;16.40;99.90
25716;DHT22;13573;50.936;4.328;2023-04-09T07:18:53;16.40;99.90
25716;DHT22;13573;50.936;4.328;2023-04-09T07:23:47;16.90;99.90
25716;DHT22;13573;50.936;4.328;2023-04-09T07:26:13;17.40;99.90
25716;DHT22;13573;50.936;4.328;2023-04-09T07:28:40;16.40;99.90
25716;DHT22;13573;50.936;4.328;2023-04-09T07:31:07;16.90;99.90
25716;DHT22;13573;50.936;4.328;2023-04-09T07:33:34;16.90;99.90
25716;DHT22;13573;50.936;4.328;2023-04-09T07:36:00;17.10;99.90
25716;DHT22;13573;50.936;4.328;2023-04-09T07:38:28;17.60;99.90
25716;DHT22;13573;50.936;4.328;2023-04-09T07:40:55;17.20;99.90
25716;DHT22;13573;50.936;4.328;2023-04-09T07:45:48;16.90;99.90
25716;DHT22;13573;50.936;4.328;2023-04-09T07:48:17;16.90;99.90
25716;DHT22;13573;50.936;4.328;2023-04-09T07:50:44;16.60;99.90
25716;DHT22;13573;50.936;4.328;2023-04-09T07:55:38;16.90;99.90
25716;DHT22;13573;50.936;4.328;2023-04-09T07:58:05;17.70;99.90
25716;DHT22;13573;50.936;4.328;2023-04-09T08:00:32;17.80;99.90
25716;DHT22;13573;50.936;4.328;2023-04-09T08:02:58;17.40;99.90
25716;DHT22;13573;50.936;4.328;2023-04-09T08:05:26;17.80;99.90
25716;DHT22;13573;50.936;4.328;2023-04-09T08:07:53;17.90;99.90
25716;DHT22;13573;50.936;4.328;2023-04-09T08:10:20;17.50;99.90
25716;DHT22;13573;50.936;4.328;2023-04-09T08:12:47;19.70;99.90
25716;DHT22;13573;50.936;4.328;2023-04-09T08:15:14;20.10;99.90
25716;DHT22;13573;50.936;4.328;2023-04-09T08:17:41;21.30;99.90
25716;DHT22;13573;50.936;4.328;2023-04-09T08:20:08;21.80;99.90
25716;DHT22;13573;50.936;4.328;2023-04-09T08:22:35;21.30;99.90
25716;DHT22;13573;50.936;4.328;2023-04-09T08:25:02;21.60;99.90
25716;DHT22;13573;50.936;4.328;2023-04-09T08:27:28;21.60;99.90
25716;DHT22;13573;50.936;4.328;2023-04-09T08:29:55;21.80;99.90
25716;DHT22;13573;50.936;4.328;2023-04-09T08:32:21;22.00;99.90
25716;DHT22;13573;50.936;4.328;2023-04-09T08:34:48;22.40;99.90
25716;DHT22;13573;50.936;4.328;2023-04-09T08:37:15;22.90;99.90
25716;DHT22;13573;50.936;4.328;2023-04-09T08:39:42;22.90;99.90
25716;DHT22;13573;50.936;4.328;2023-04-09T08:42:09;23.20;99.90
25716;DHT22;13573;50.936;4.328;2023-04-09T08:44:37;23.10;99.90
25716;DHT22;13573;50.936;4.328;2023-04-09T08:49:35;24.80;99.90
25716;DHT22;13573;50.936;4.328;2023-04-09T08:52:01;24.80;99.90
25716;DHT22;13573;50.936;4.328;2023-04-09T08:54:28;25.50;99.90
25716;DHT22;13573;50.936;4.328;2023-04-09T08:56:55;25.70;99.90
25716;DHT22;13573;50.936;4.328;2023-04-09T08:59:22;25.00;99.90
25716;DHT22;13573;50.936;4.328;2023-04-09T09:01:49;25.00;99.90
25716;DHT22;13573;50.936;4.328;2023-04-09T09:04:19;24.90;99.90
25716;DHT22;13573;50.936;4.328;2023-04-09T09:06:46;25.50;99.90
25716;DHT22;13573;50.936;4.328;2023-04-09T09:09:15;24.80;99.90
25716;DHT22;13573;50.936;4.328;2023-04-09T09:11:45;25.50;99.90
25716;DHT22;13573;50.936;4.328;2023-04-09T09:14:15;26.00;99.90
25716;DHT22;13573;50.936;4.328;2023-04-09T09:19:31;25.90;99.90
25716;DHT22;13573;50.936;4.328;2023-04-09T09:22:03;26.70;98.30
25716;DHT22;13573;50.936;4.328;2023-04-09T09:24:30;24.40;99.90
25716;DHT22;13573;50.936;4.328;2023-04-09T09:26:59;25.90;98.50
25716;DHT22;13573;50.936;4.328;2023-04-09T09:29:27;26.10;99.90
25716;DHT22;13573;50.936;4.328;2023-04-09T09:31:55;25.40;99.90
25716;DHT22;13573;50.936;4.328;2023-04-09T09:34:23;25.30;99.90
25716;DHT22;13573;50.936;4.328;2023-04-09T09:36:50;25.90;99.90
25716;DHT22;13573;50.936;4.328;2023-04-09T09:39:17;26.20;98.10
25716;DHT22;13573;50.936;4.328;2023-04-09T09:41:44;27.40;99.80
25716;DHT22;13573;50.936;4.328;2023-04-09T09:44:30;27.90;99.90
25716;DHT22;13573;50.936;4.328;2023-04-09T09:46:58;27.40;99.90
25716;DHT22;13573;50.936;4.328;2023-04-09T09:49:24;27.50;99.60
25716;DHT22;13573;50.936;4.328;2023-04-09T09:51:52;28.80;99.60
25716;DHT22;13573;50.936;4.328;2023-04-09T09:54:22;27.90;95.80
25716;DHT22;13573;50.936;4.328;2023-04-09T09:56:51;27.30;98.10
25716;DHT22;13573;50.936;4.328;2023-04-09T09:59:22;27.00;98.40
25716;DHT22;13573;50.936;4.328;2023-04-09T10:01:59;25.10;98.70
25716;DHT22;13573;50.936;4.328;2023-04-09T10:04:25;25.80;99.40
25716;DHT22;13573;50.936;4.328;2023-04-09T10:06:54;26.00;99.00
25716;DHT22;13573;50.936;4.328;2023-04-09T10:09:22;26.40;98.00
25716;DHT22;13573;50.936;4.328;2023-04-09T10:11:52;27.60;95.60
25716;DHT22;13573;50.936;4.328;2023-04-09T10:14:19;29.00;93.70
25716;DHT22;13573;50.936;4.328;2023-04-09T10:16:46;28.50;96.30
25716;DHT22;13573;50.936;4.328;2023-04-09T10:19:13;28.40;97.60
25716;DHT22;13573;50.936;4.328;2023-04-09T10:21:51;27.80;97.90
25716;DHT22;13573;50.936;4.328;2023-04-09T10:24:19;26.00;98.10
25716;DHT22;13573;50.936;4.328;2023-04-09T10:26:47;26.60;98.00
25716;DHT22;13573;50.936;4.328;2023-04-09T10:29:15;26.80;97.50
25716;DHT22;13573;50.936;4.328;2023-04-09T10:31:52;26.80;93.90
25716;DHT22;13573;50.936;4.328;2023-04-09T10:34:22;26.50;96.90
25716;DHT22;13573;50.936;4.328;2023-04-09T10:36:52;26.70;97.00
25716;DHT22;13573;50.936;4.328;2023-04-09T10:39:19;26.70;97.40
25716;DHT22;13573;50.936;4.328;2023-04-09T10:41:47;27.00;97.50
25716;DHT22;13573;50.936;4.328;2023-04-09T10:44:24;26.00;97.30
25716;DHT22;13573;50.936;4.328;2023-04-09T10:46:53;27.00;97.70
25716;DHT22;13573;50.936;4.328;2023-04-09T10:49:22;27.40;97.00
25716;DHT22;13573;50.936;4.328;2023-04-09T10:52:00;25.50;96.60
25716;DHT22;13573;50.936;4.328;2023-04-09T10:54:39;27.10;97.00
25716;DHT22;13573;50.936;4.328;2023-04-09T10:57:10;27.70;96.50
25716;DHT22;13573;50.936;4.328;2023-04-09T10:59:41;27.60;96.50
25716;DHT22;13573;50.936;4.328;2023-04-09T11:05:14;27.50;96.30
25716;DHT22;13573;50.936;4.328;2023-04-09T11:07:43;28.00;95.90
25716;DHT22;13573;50.936;4.328;2023-04-09T11:10:11;27.70;95.90
25716;DHT22;13573;50.936;4.328;2023-04-09T11:12:38;26.60;96.20
25716;DHT22;13573;50.936;4.328;2023-04-09T11:15:05;26.20;97.60
25716;DHT22;13573;50.936;4.328;2023-04-09T11:17:35;25.60;97.10
25716;DHT22;13573;50.936;4.328;2023-04-09T11:20:02;25.80;93.40
25716;DHT22;13573;50.936;4.328;2023-04-09T11:22:29;25.10;98.00
25716;DHT22;13573;50.936;4.328;2023-04-09T11:24:56;26.10;97.70
25716;DHT22;13573;50.936;4.328;2023-04-09T11:27:22;27.60;96.10
25716;DHT22;13573;50.936;4.328;2023-04-09T11:29:56;27.30;96.30
25716;DHT22;13573;50.936;4.328;2023-04-09T11:32:28;27.20;96.30
25716;DHT22;13573;50.936;4.328;2023-04-09T11:37:20;26.20;98.10
25716;DHT22;13573;50.936;4.328;2023-04-09T11:39:46;26.00;93.60
25716;DHT22;13573;50.936;4.328;2023-04-09T11:42:16;27.30;97.50
25716;DHT22;13573;50.936;4.328;2023-04-09T11:44:44;27.40;96.60
25716;DHT22;13573;50.936;4.328;2023-04-09T11:47:12;27.10;96.30
25716;DHT22;13573;50.936;4.328;2023-04-09T11:49:42;27.80;96.50
25716;DHT22;13573;50.936;4.328;2023-04-09T11:52:09;27.40;95.90
25716;DHT22;13573;50.936;4.328;2023-04-09T11:54:36;27.00;95.80
25716;DHT22;13573;50.936;4.328;2023-04-09T11:57:03;26.80;96.40
25716;DHT22;13573;50.936;4.328;2023-04-09T11:59:30;26.00;96.50
25716;DHT22;13573;50.936;4.328;2023-04-09T12:01:57;25.20;97.10
25716;DHT22;13573;50.936;4.328;2023-04-09T12:04:24;24.80;98.20
25716;DHT22;13573;50.936;4.328;2023-04-09T12:06:55;24.20;98.30
25716;DHT22;13573;50.936;4.328;2023-04-09T12:09:19;23.60;99.20
25716;DHT22;13573;50.936;4.328;2023-04-09T12:14:14;24.60;98.50
25716;DHT22;13573;50.936;4.328;2023-04-09T12:16:42;26.40;96.50
25716;DHT22;13573;50.936;4.328;2023-04-09T12:19:11;27.80;95.80
25716;DHT22;13573;50.936;4.328;2023-04-09T12:21:48;28.00;92.70
25716;DHT22;13573;50.936;4.328;2023-04-09T12:24:17;27.10;95.20
25716;DHT22;13573;50.936;4.328;2023-04-09T12:26:45;28.60;92.40
25716;DHT22;13573;50.936;4.328;2023-04-09T12:29:14;28.00;95.00
25716;DHT22;13573;50.936;4.328;2023-04-09T12:31:41;28.20;92.20
25716;DHT22;13573;50.936;4.328;2023-04-09T12:34:09;31.60;92.20
25716;DHT22;13573;50.936;4.328;2023-04-09T12:36:36;31.00;92.20
25716;DHT22;13573;50.936;4.328;2023-04-09T12:39:03;31.50;92.10
25716;DHT22;13573;50.936;4.328;2023-04-09T12:41:30;31.30;91.90
25716;DHT22;13573;50.936;4.328;2023-04-09T12:43:57;31.40;92.30
25716;DHT22;13573;50.936;4.328;2023-04-09T12:46:24;31.70;89.50
25716;DHT22;13573;50.936;4.328;2023-04-09T12:48:53;30.50;91.30
25716;DHT22;13573;50.936;4.328;2023-04-09T12:51:20;30.00;91.60
25716;DHT22;13573;50.936;4.328;2023-04-09T12:53:48;28.20;92.50
25716;DHT22;13573;50.936;4.328;2023-04-09T12:56:16;26.50;92.30
25716;DHT22;13573;50.936;4.328;2023-04-09T12:58:42;26.70;93.60
25716;DHT22;13573;50.936;4.328;2023-04-09T13:01:09;26.60;94.50
25716;DHT22;13573;50.936;4.328;2023-04-09T13:03:35;25.80;95.10
25716;DHT22;13573;50.936;4.328;2023-04-09T13:06:02;25.40;95.40
25716;DHT22;13573;50.936;4.328;2023-04-09T13:08:29;25.20;95.90
25716;DHT22;13573;50.936;4.328;2023-04-09T13:10:56;26.10;95.90
25716;DHT22;13573;50.936;4.328;2023-04-09T13:13:22;23.60;95.90
25716;DHT22;13573;50.936;4.328;2023-04-09T13:15:49;24.60;96.10
25716;DHT22;13573;50.936;4.328;2023-04-09T13:18:17;25.80;95.80
25716;DHT22;13573;50.936;4.328;2023-04-09T13:23:10;28.50;94.20
25716;DHT22;13573;50.936;4.328;2023-04-09T13:28:03;29.00;93.60
25716;DHT22;13573;50.936;4.328;2023-04-09T13:30:30;28.80;93.70
25716;DHT22;13573;50.936;4.328;2023-04-09T13:32:56;29.60;89.90
25716;DHT22;13573;50.936;4.328;2023-04-09T13:35:23;28.60;93.10
25716;DHT22;13573;50.936;4.328;2023-04-09T13:37:50;28.10;90.10
25716;DHT22;13573;50.936;4.328;2023-04-09T13:40:16;27.00;94.30
25716;DHT22;13573;50.936;4.328;2023-04-09T13:45:11;27.70;93.40
25716;DHT22;13573;50.936;4.328;2023-04-09T13:47:37;27.90;93.80
25716;DHT22;13573;50.936;4.328;2023-04-09T13:50:05;26.90;94.30
25716;DHT22;13573;50.936;4.328;2023-04-09T13:52:32;26.30;94.60
25716;DHT22;13573;50.936;4.328;2023-04-09T13:54:59;25.80;94.70
25716;DHT22;13573;50.936;4.328;2023-04-09T13:57:26;25.30;95.70
25716;DHT22;13573;50.936;4.328;2023-04-09T13:59:52;25.30;95.70
25716;DHT22;13573;50.936;4.328;2023-04-09T14:02:19;24.40;95.80
25716;DHT22;13573;50.936;4.328;2023-04-09T14:04:46;25.10;96.40
25716;DHT22;13573;50.936;4.328;2023-04-09T14:07:12;25.30;96.90
25716;DHT22;13573;50.936;4.328;2023-04-09T14:09:39;24.80;96.90
25716;DHT22;13573;50.936;4.328;2023-04-09T14:12:05;23.40;96.30
25716;DHT22;13573;50.936;4.328;2023-04-09T14:16:59;24.30;97.10
25716;DHT22;13573;50.936;4.328;2023-04-09T14:19:25;24.30;97.50
25716;DHT22;13573;50.936;4.328;2023-04-09T14:24:20;24.70;97.90
25716;DHT22;13573;50.936;4.328;2023-04-09T14:26:48;23.50;98.20
25716;DHT22;13573;50.936;4.328;2023-04-09T14:29:18;22.80;98.50
25716;DHT22;13573;50.936;4.328;2023-04-09T14:31:45;22.90;98.70
25716;DHT22;13573;50.936;4.328;2023-04-09T14:34:12;21.30;99.00
25716;DHT22;13573;50.936;4.328;2023-04-09T14:36:39;21.40;99.90
25716;DHT22;13573;50.936;4.328;2023-04-09T14:39:05;21.30;98.00
25716;DHT22;13573;50.936;4.328;2023-04-09T14:41:32;21.40;99.40
25716;DHT22;13573;50.936;4.328;2023-04-09T14:43:59;20.60;99.90
25716;DHT22;13573;50.936;4.328;2023-04-09T14:46:25;22.00;99.70
25716;DHT22;13573;50.936;4.328;2023-04-09T14:48:52;22.00;99.40
25716;DHT22;13573;50.936;4.328;2023-04-09T14:51:19;21.20;99.90
25716;DHT22;13573;50.936;4.328;2023-04-09T14:53:45;23.00;99.90
25716;DHT22;13573;50.936;4.328;2023-04-09T15:01:05;21.90;99.90
25716;DHT22;13573;50.936;4.328;2023-04-09T15:03:32;22.20;99.90
25716;DHT22;13573;50.936;4.328;2023-04-09T15:05:59;22.10;99.90
25716;DHT22;13573;50.936;4.328;2023-04-09T15:08:25;21.70;99.90
25716;DHT22;13573;50.936;4.328;2023-04-09T15:10:52;21.60;99.90
25716;DHT22;13573;50.936;4.328;2023-04-09T15:13:19;21.40;99.90
25716;DHT22;13573;50.936;4.328;2023-04-09T15:15:45;21.90;99.90
25716;DHT22;13573;50.936;4.328;2023-04-09T15:18:12;21.80;99.90
25716;DHT22;13573;50.936;4.328;2023-04-09T15:20:39;21.60;99.90
25716;DHT22;13573;50.936;4.328;2023-04-09T15:23:09;20.80;99.90
25716;DHT22;13573;50.936;4.328;2023-04-09T15:30:29;22.10;99.90
25716;DHT22;13573;50.936;4.328;2023-04-09T15:32:56;22.40;99.90
25716;DHT22;13573;50.936;4.328;2023-04-09T15:35:23;22.60;99.50
25716;DHT22;13573;50.936;4.328;2023-04-09T15:40:18;22.10;99.00
25716;DHT22;13573;50.936;4.328;2023-04-09T15:42:45;20.90;98.60
25716;DHT22;13573;50.936;4.328;2023-04-09T15:45:13;22.60;99.20
25716;DHT22;13573;50.936;4.328;2023-04-09T15:47:43;22.40;99.00
25716;DHT22;13573;50.936;4.328;2023-04-09T15:50:10;21.80;98.30
25716;DHT22;13573;50.936;4.328;2023-04-09T15:52:37;22.50;98.30
25716;DHT22;13573;50.936;4.328;2023-04-09T15:55:04;22.70;98.40
25716;DHT22;13573;50.936;4.328;2023-04-09T15:57:31;22.20;98.60
25716;DHT22;13573;50.936;4.328;2023-04-09T16:02:25;22.30;98.40
25716;DHT22;13573;50.936;4.328;2023-04-09T16:04:51;22.30;98.60
25716;DHT22;13573;50.936;4.328;2023-04-09T16:07:18;22.10;97.60
25716;DHT22;13573;50.936;4.328;2023-04-09T16:09:45;22.10;98.60
25716;DHT22;13573;50.936;4.328;2023-04-09T16:12:12;21.20;99.50
25716;DHT22;13573;50.936;4.328;2023-04-09T16:17:05;21.20;99.90
25716;DHT22;13573;50.936;4.328;2023-04-09T16:19:32;20.30;99.90
25716;DHT22;13573;50.936;4.328;2023-04-09T16:21:59;20.10;99.50
25716;DHT22;13573;50.936;4.328;2023-04-09T16:24:26;19.60;99.90
25716;DHT22;13573;50.936;4.328;2023-04-09T16:29:21;17.90;99.90
25716;DHT22;13573;50.936;4.328;2023-04-09T16:31:47;19.00;99.90
25716;DHT22;13573;50.936;4.328;2023-04-09T16:36:41;19.50;99.90
25716;DHT22;13573;50.936;4.328;2023-04-09T16:39:08;19.30;99.90
25716;DHT22;13573;50.936;4.328;2023-04-09T16:41:36;19.20;99.90
25716;DHT22;13573;50.936;4.328;2023-04-09T16:44:03;19.50;99.90
25716;DHT22;13573;50.936;4.328;2023-04-09T16:48:56;18.70;99.90
25716;DHT22;13573;50.936;4.328;2023-04-09T16:51:23;18.20;99.90
25716;DHT22;13573;50.936;4.328;2023-04-09T16:53:50;18.10;99.90
25716;DHT22;13573;50.936;4.328;2023-04-09T16:56:17;17.80;99.90
25716;DHT22;13573;50.936;4.328;2023-04-09T17:03:38;18.30;99.90
25716;DHT22;13573;50.936;4.328;2023-04-09T17:06:05;18.40;99.90
25716;DHT22;13573;50.936;4.328;2023-04-09T17:15:56;18.00;99.90
25716;DHT22;13573;50.936;4.328;2023-04-09T17:23:17;17.50;99.90
25716;DHT22;13573;50.936;4.328;2023-04-09T17:28:11;17.40;99.90
25716;DHT22;13573;50.936;4.328;2023-04-09T17:33:05;18.70;99.90
25716;DHT22;13573;50.936;4.328;2023-04-09T17:35:32;17.70;99.90
25716;DHT22;13573;50.936;4.328;2023-04-09T17:37:59;17.60;99.90
25716;DHT22;13573;50.936;4.328;2023-04-09T17:40:26;17.40;99.90
25716;DHT22;13573;50.936;4.328;2023-04-09T17:45:21;17.20;99.90
25716;DHT22;13573;50.936;4.328;2023-04-09T17:47:47;17.40;99.90
25716;DHT22;13573;50.936;4.328;2023-04-09T17:50:16;17.60;99.90
25716;DHT22;13573;50.936;4.328;2023-04-09T17:52:43;17.10;99.90
25716;DHT22;13573;50.936;4.328;2023-04-09T17:57:39;17.70;99.90
25716;DHT22;13573;50.936;4.328;2023-04-09T18:00:07;17.20;99.90
25716;DHT22;13573;50.936;4.328;2023-04-09T18:02:34;17.30;99.90
25716;DHT22;13573;50.936;4.328;2023-04-09T18:05:02;17.20;99.90
25716;DHT22;13573;50.936;4.328;2023-04-09T18:07:29;17.10;99.90
25716;DHT22;13573;50.936;4.328;2023-04-09T18:12:26;16.90;99.90
25716;DHT22;13573;50.936;4.328;2023-04-09T18:17:19;17.20;99.90
25716;DHT22;13573;50.936;4.328;2023-04-09T18:19:46;16.90;99.90
25716;DHT22;13573;50.936;4.328;2023-04-09T18:22:14;16.40;99.90
25716;DHT22;13573;50.936;4.328;2023-04-09T18:24:41;16.80;99.90
25716;DHT22;13573;50.936;4.328;2023-04-09T18:27:08;16.70;99.90
25716;DHT22;13573;50.936;4.328;2023-04-09T18:32:01;16.70;99.90
25716;DHT22;13573;50.936;4.328;2023-04-09T18:34:28;17.20;99.90
25716;DHT22;13573;50.936;4.328;2023-04-09T18:36:54;16.20;99.90
25716;DHT22;13573;50.936;4.328;2023-04-09T18:39:21;16.00;99.90
25716;DHT22;13573;50.936;4.328;2023-04-09T18:46:41;16.40;99.90
25716;DHT22;13573;50.936;4.328;2023-04-09T18:49:08;16.20;99.90
25716;DHT22;13573;50.936;4.328;2023-04-09T18:54:02;15.90;99.90
25716;DHT22;13573;50.936;4.328;2023-04-09T18:56:28;16.00;99.90
25716;DHT22;13573;50.936;4.328;2023-04-09T19:01:22;15.80;99.90
25716;DHT22;13573;50.936;4.328;2023-04-09T19:06:17;15.80;99.90
25716;DHT22;13573;50.936;4.328;2023-04-09T19:08:45;15.80;99.90
25716;DHT22;13573;50.936;4.328;2023-04-09T19:11:12;16.90;99.90
25716;DHT22;13573;50.936;4.328;2023-04-09T19:13:39;15.50;99.90
25716;DHT22;13573;50.936;4.328;2023-04-09T19:18:35;15.50;99.90
25716;DHT22;13573;50.936;4.328;2023-04-09T19:23:29;14.70;99.90
25716;DHT22;13573;50.936;4.328;2023-04-09T19:25:56;15.20;99.90
25716;DHT22;13573;50.936;4.328;2023-04-09T19:28:23;15.40;99.90
25716;DHT22;13573;50.936;4.328;2023-04-09T19:30:51;15.20;99.90
25716;DHT22;13573;50.936;4.328;2023-04-09T19:33:20;14.90;99.90
25716;DHT22;13573;50.936;4.328;2023-04-09T19:35:47;15.20;99.90
25716;DHT22;13573;50.936;4.328;2023-04-09T19:38:15;14.90;99.90
25716;DHT22;13573;50.936;4.328;2023-04-09T19:40:42;15.40;99.90
25716;DHT22;13573;50.936;4.328;2023-04-09T19:43:09;15.40;99.90
25716;DHT22;13573;50.936;4.328;2023-04-09T19:45:37;14.80;99.90
25716;DHT22;13573;50.936;4.328;2023-04-09T19:53:02;15.60;99.90
25716;DHT22;13573;50.936;4.328;2023-04-09T19:57:56;15.30;99.90
25716;DHT22;13573;50.936;4.328;2023-04-09T20:05:17;14.60;99.90
25716;DHT22;13573;50.936;4.328;2023-04-09T20:07:47;14.20;99.90
25716;DHT22;13573;50.936;4.328;2023-04-09T20:10:14;14.40;99.90
25716;DHT22;13573;50.936;4.328;2023-04-09T20:12:41;14.60;99.90
25716;DHT22;13573;50.936;4.328;2023-04-09T20:15:08;14.50;99.90
25716;DHT22;13573;50.936;4.328;2023-04-09T20:20:02;14.50;99.90
25716;DHT22;13573;50.936;4.328;2023-04-09T20:24:56;14.40;99.90
25716;DHT22;13573;50.936;4.328;2023-04-09T20:27:25;13.80;99.90